Time;durP1;ratioP1;P1;durP2;ratioP2;P2;SDS_P1;SDS_P2;PMS_P1;PMS_P2;Temp;Humidity;BMP_temperature;BMP_pressure;BME280_temperature;BME280_humidity;BME280_pressure;Samples;Min_cycle;Max_cycle;Signal;HPM_P1;HPM_P2
2024/03/20 00:01:26;;;;;;;15.82;9.15;;;;;;;5.97;64.73;99679.03;4872742;29;20427;-93
2024/03/20 00:03:52;;;;;;;17.42;9.70;;;;;;;5.91;64.41;99673.75;4883762;29;20033;-92
2024/03/20 00:06:18;;;;;;;15.43;9.88;;;;;;;5.80;65.03;99678.84;4860414;29;20153;-91
2024/03/20 00:08:43;;;;;;;16.20;8.98;;;;;;;5.75;64.31;99676.06;4889331;29;20017;-92
2024/03/20 00:11:09;;;;;;;14.90;9.40;;;;;;;5.67;64.34;99666.50;4870897;29;20111;-93
2024/03/20 00:13:34;;;;;;;13.43;8.38;;;;;;;5.59;64.47;99663.34;4870379;29;20052;-91
2024/03/20 00:16:00;;;;;;;13.40;8.88;;;;;;;5.55;64.21;99654.97;4889258;29;20047;-91
2024/03/20 00:18:26;;;;;;;16.33;8.88;;;;;;;5.54;64.00;99657.88;4904317;29;20028;-91
2024/03/20 00:20:51;;;;;;;12.65;8.27;;;;;;;5.42;63.52;99652.53;4900391;29;20425;-91
2024/03/20 00:23:17;;;;;;;18.65;9.45;;;;;;;5.67;64.15;99687.06;4908472;29;20039;-92
2024/03/20 00:25:42;;;;;;;13.15;8.63;;;;;;;5.61;64.18;99677.31;4893064;29;20024;-92
2024/03/20 00:28:08;;;;;;;14.68;8.95;;;;;;;5.59;63.36;99666.84;4908436;29;20034;-91
2024/03/20 00:30:33;;;;;;;15.50;9.35;;;;;;;5.63;63.52;99678.69;4926196;29;20084;-92
2024/03/20 00:32:59;;;;;;;13.75;8.43;;;;;;;5.44;63.34;99653.09;4888012;29;20032;-91
2024/03/20 00:35:24;;;;;;;10.32;7.50;;;;;;;5.38;62.46;99656.69;4927431;29;20031;-92
2024/03/20 00:37:50;;;;;;;13.40;8.00;;;;;;;5.36;62.53;99662.25;4917507;29;20036;-93
2024/03/20 00:40:15;;;;;;;15.38;8.52;;;;;;;5.30;62.20;99665.00;4890601;29;20086;-93
2024/03/20 00:42:41;;;;;;;11.23;7.05;;;;;;;5.31;61.41;99674.63;4923230;29;20027;-93
2024/03/20 00:45:06;;;;;;;12.02;7.78;;;;;;;5.30;62.12;99678.38;4891672;29;20059;-93
2024/03/20 00:47:32;;;;;;;12.38;7.32;;;;;;;5.30;61.35;99676.50;4906775;29;20032;-92
2024/03/20 00:49:59;;;;;;;14.20;7.60;;;;;;;5.07;61.25;99664.69;4924775;29;20028;-93
2024/03/20 00:52:24;;;;;;;13.13;7.32;;;;;;;5.18;59.76;99675.63;4918205;29;20102;-92
2024/03/20 00:54:50;;;;;;;9.90;5.88;;;;;;;5.01;59.23;99652.22;4890721;29;20052;-93
2024/03/20 00:57:15;;;;;;;9.90;6.38;;;;;;;4.96;57.88;99662.78;4893232;29;20104;-93
2024/03/20 00:59:41;;;;;;;10.75;5.85;;;;;;;4.79;57.30;99643.91;4890898;29;20032;-91
2024/03/20 01:02:07;;;;;;;11.43;6.20;;;;;;;4.66;58.08;99646.72;4891353;29;20040;-92
2024/03/20 01:04:33;;;;;;;8.20;4.93;;;;;;;4.57;57.60;99634.72;4904579;29;20039;-92
2024/03/20 01:06:58;;;;;;;8.05;5.32;;;;;;;4.73;57.38;99646.63;4872921;29;20028;-92
2024/03/20 01:09:24;;;;;;;9.75;5.85;;;;;;;4.73;57.46;99639.47;4887106;29;20024;-92
2024/03/20 01:11:50;;;;;;;9.20;5.82;;;;;;;4.53;58.48;99626.34;4888627;29;20115;-92
2024/03/20 01:14:15;;;;;;;11.82;6.32;;;;;;;4.50;59.16;99641.97;4874473;29;20103;-92
2024/03/20 01:16:41;;;;;;;8.20;4.82;;;;;;;4.71;57.46;99662.88;4888178;29;20024;-92
2024/03/20 01:19:06;;;;;;;7.50;4.93;;;;;;;4.68;55.76;99635.81;4887219;29;20020;-91
2024/03/20 01:21:32;;;;;;;9.88;5.20;;;;;;;4.70;55.90;99649.75;4872148;29;20059;-91
2024/03/20 01:23:58;;;;;;;7.78;4.95;;;;;;;4.73;56.36;99660.81;4888228;29;20099;-92
2024/03/20 01:26:23;;;;;;;7.32;4.88;;;;;;;4.43;56.85;99616.19;4888668;29;20059;-92
2024/03/20 01:28:49;;;;;;;8.23;4.70;;;;;;;4.45;56.69;99626.63;4888148;29;20107;-92
2024/03/20 01:31:15;;;;;;;7.30;5.22;;;;;;;4.41;57.47;99630.78;4872184;29;20050;-91
2024/03/20 01:33:41;;;;;;;8.13;5.43;;;;;;;4.41;58.50;99650.25;4871957;29;20028;-93
2024/03/20 01:36:06;;;;;;;8.90;5.93;;;;;;;4.64;58.46;99662.94;4871810;29;20087;-92
2024/03/20 01:38:33;;;;;;;10.77;6.05;;;;;;;4.43;58.45;99632.19;4872599;29;20068;-92
2024/03/20 01:40:58;;;;;;;8.18;4.95;;;;;;;4.41;58.29;99636.13;4871916;29;20024;-91
2024/03/20 01:43:24;;;;;;;7.63;4.80;;;;;;;4.49;56.87;99641.16;4871653;29;20159;-92
2024/03/20 01:45:50;;;;;;;12.35;5.15;;;;;;;4.40;57.78;99639.81;4871815;29;20032;-92
2024/03/20 01:48:15;;;;;;;8.23;4.50;;;;;;;4.31;56.88;99633.94;4887393;29;20028;-92
2024/03/20 01:50:41;;;;;;;8.45;4.97;;;;;;;4.18;57.28;99626.91;4903341;29;20032;-92
2024/03/20 01:53:26;;;;;;;9.80;5.85;;;;;;;4.39;57.50;99662.19;4872046;29;20028;-92
2024/03/20 01:55:51;;;;;;;8.00;4.90;;;;;;;4.22;57.27;99641.44;4887279;29;20024;-93
2024/03/20 01:58:17;;;;;;;6.78;4.85;;;;;;;4.09;57.27;99640.72;4872367;29;20028;-92
2024/03/20 02:00:45;;;;;;;9.30;3.72;;;;;;;3.99;57.57;99638.59;4871230;29;20028;-92
2024/03/20 02:03:15;;;;;;;5.15;3.60;;;;;;;3.93;56.99;99637.59;4871920;29;20414;-92
2024/03/20 02:05:41;;;;;;;8.88;3.80;;;;;;;4.00;55.92;99657.00;4872985;29;20039;-92
2024/03/20 02:08:06;;;;;;;7.43;4.00;;;;;;;3.99;55.84;99646.56;4872126;29;20028;-92
2024/03/20 02:10:32;;;;;;;5.88;3.75;;;;;;;3.69;56.38;99612.59;4874171;29;20501;-92
2024/03/20 02:13:02;;;;;;;5.63;3.92;;;;;;;3.82;56.19;99625.81;4891565;29;20097;-92
2024/03/20 02:15:27;;;;;;;6.80;3.83;;;;;;;3.85;55.94;99637.88;4884798;29;20050;-92
2024/03/20 02:17:53;;;;;;;6.40;3.70;;;;;;;3.90;55.39;99635.38;4901080;29;20024;-93
2024/03/20 02:20:19;;;;;;;6.05;3.83;;;;;;;3.84;55.39;99647.72;4875496;29;20056;-93
2024/03/20 02:22:44;;;;;;;5.45;3.42;;;;;;;3.84;55.59;99653.03;4875261;29;20036;-93
2024/03/20 02:25:10;;;;;;;5.60;3.72;;;;;;;3.83;56.02;99655.91;4880584;29;20117;-92
2024/03/20 02:27:37;;;;;;;6.15;3.63;;;;;;;3.84;54.90;99660.22;4874593;29;20410;-92
2024/03/20 02:30:07;;;;;;;5.38;3.47;;;;;;;3.73;54.16;99651.06;4900902;29;20035;-92
2024/03/20 02:32:33;;;;;;;6.03;3.45;;;;;;;3.72;53.11;99652.13;4941051;29;20043;-93
2024/03/20 02:34:58;;;;;;;5.10;3.28;;;;;;;3.87;53.67;99682.94;4925421;29;20051;-92
2024/03/20 02:37:24;;;;;;;6.53;3.10;;;;;;;3.95;53.88;99682.69;4909803;29;20015;-92
2024/03/20 02:39:49;;;;;;;7.10;3.10;;;;;;;3.80;54.27;99673.16;4925956;29;20028;-92
2024/03/20 02:42:15;;;;;;;6.20;3.40;;;;;;;3.92;54.18;99683.09;4941030;29;20032;-92
2024/03/20 02:44:40;;;;;;;6.80;3.70;;;;;;;3.81;54.34;99665.97;4941967;29;20031;-92
2024/03/20 02:47:07;;;;;;;7.72;3.97;;;;;;;3.79;56.70;99682.16;4909002;29;20032;-91
2024/03/20 02:49:32;;;;;;;12.35;6.03;;;;;;;3.56;61.11;99689.91;4925763;29;20019;-92
2024/03/20 02:51:58;;;;;;;10.95;6.03;;;;;;;3.41;61.74;99690.22;4941051;29;20023;-92
2024/03/20 02:54:23;;;;;;;14.68;6.32;;;;;;;3.39;62.53;99690.41;4919619;29;20479;-92
2024/03/20 02:56:49;;;;;;;11.45;6.45;;;;;;;3.28;62.88;99688.44;4871467;29;20025;-92
2024/03/20 02:59:14;;;;;;;11.68;6.10;;;;;;;3.31;63.02;99696.00;4872954;29;20048;-91
2024/03/20 03:01:40;;;;;;;9.25;5.90;;;;;;;3.39;62.60;99687.75;4910748;29;20024;-91
2024/03/20 03:04:06;;;;;;;10.05;5.57;;;;;;;3.26;63.16;99682.53;4892118;29;20083;-91
2024/03/20 03:06:32;;;;;;;9.18;5.82;;;;;;;3.14;63.24;99687.69;4923608;29;20024;-91
2024/03/20 03:08:57;;;;;;;8.63;5.68;;;;;;;3.15;63.66;99696.47;4924012;29;20015;-92
2024/03/20 03:11:23;;;;;;;8.63;5.72;;;;;;;3.12;63.53;99689.75;4923699;29;20035;-91
2024/03/20 03:13:48;;;;;;;8.77;5.97;;;;;;;3.33;63.28;99715.22;4940233;29;20107;-94
2024/03/20 03:16:14;;;;;;;15.50;5.45;;;;;;;3.13;62.84;99688.69;4923967;29;20520;-92
2024/03/20 03:18:39;;;;;;;8.80;5.38;;;;;;;3.11;64.30;99712.03;4938691;29;20031;-92
2024/03/20 03:21:10;;;;;;;9.30;5.85;;;;;;;3.02;63.23;99708.00;4891747;29;20058;-92
2024/03/20 03:23:36;;;;;;;6.95;4.43;;;;;;;2.72;62.69;99692.56;4892328;29;20020;-92
2024/03/20 03:26:03;;;;;;;6.93;4.35;;;;;;;2.86;62.35;99703.13;4916083;29;20031;-91
2024/03/20 03:28:29;;;;;;;7.30;4.43;;;;;;;2.89;63.00;99724.81;4905111;29;20020;-92
2024/03/20 03:30:54;;;;;;;8.60;4.70;;;;;;;2.76;62.77;99706.22;4874691;29;20095;-92
2024/03/20 03:33:21;;;;;;;8.18;4.57;;;;;;;2.66;63.33;99697.88;4893637;29;20019;-93
2024/03/20 03:35:47;;;;;;;11.45;4.53;;;;;;;2.69;63.94;99708.91;4939763;29;20056;-93
2024/03/20 03:38:12;;;;;;;9.60;4.57;;;;;;;2.83;63.99;99705.19;4907525;29;20032;-93
2024/03/20 03:40:38;;;;;;;7.47;4.70;;;;;;;3.06;63.35;99727.03;4924741;29;20027;-93
2024/03/20 03:43:03;;;;;;;6.72;4.80;;;;;;;2.90;62.78;99689.19;4882029;29;20087;-92
2024/03/20 03:45:29;;;;;;;6.30;3.92;;;;;;;2.97;61.74;99698.00;4880890;29;20044;-93
2024/03/20 03:47:55;;;;;;;6.40;4.07;;;;;;;3.17;62.02;99729.00;4887963;29;20020;-94
2024/03/20 03:50:21;;;;;;;5.88;3.58;;;;;;;2.89;59.93;99703.53;4911046;29;20025;-93
2024/03/20 03:52:46;;;;;;;8.00;4.38;;;;;;;2.85;60.26;99699.66;4908951;29;20070;-92
2024/03/20 03:55:12;;;;;;;8.20;4.10;;;;;;;2.77;61.42;99723.81;4913903;29;20024;-93
2024/03/20 03:57:37;;;;;;;9.48;4.68;;;;;;;2.68;61.12;99707.28;4919603;29;20084;-93
2024/03/20 04:00:04;;;;;;;9.45;4.40;;;;;;;2.54;61.48;99700.38;4904539;29;20024;-93
2024/03/20 04:02:31;;;;;;;6.40;4.47;;;;;;;2.35;62.22;99697.53;4888390;29;20035;-93
2024/03/20 04:04:56;;;;;;;9.90;4.97;;;;;;;2.54;63.15;99746.38;4906283;29;20046;-93
2024/03/20 04:07:22;;;;;;;9.35;4.18;;;;;;;2.37;62.88;99723.91;4921441;29;20061;-93
2024/03/20 04:09:47;;;;;;;8.73;5.03;;;;;;;2.21;63.52;99712.66;4904846;29;20028;-91
2024/03/20 04:12:13;;;;;;;11.60;5.45;;;;;;;2.10;64.08;99713.28;4905068;29;20024;-91
2024/03/20 04:14:38;;;;;;;11.23;4.95;;;;;;;2.15;64.51;99721.44;4904226;29;20027;-92
2024/03/20 04:17:04;;;;;;;6.93;4.63;;;;;;;2.03;65.29;99720.44;4903480;29;20490;-92
2024/03/20 04:19:29;;;;;;;9.43;4.80;;;;;;;2.16;64.00;99741.69;4905124;29;20020;-92
2024/03/20 04:21:57;;;;;;;8.60;4.25;;;;;;;2.21;63.94;99736.56;4903547;29;20043;-93
2024/03/20 04:24:23;;;;;;;9.40;4.75;;;;;;;2.26;64.27;99748.44;4871842;29;20039;-93
2024/03/20 04:26:49;;;;;;;6.90;3.97;;;;;;;2.10;65.08;99731.88;4889969;29;20027;-93
2024/03/20 04:29:15;;;;;;;7.78;4.80;;;;;;;2.39;65.03;99769.69;4875341;29;20040;-94
2024/03/20 04:31:41;;;;;;;12.15;5.07;;;;;;;2.21;64.65;99749.84;4881954;29;20032;-93
2024/03/20 04:34:07;;;;;;;7.03;4.60;;;;;;;2.33;63.51;99744.75;4888295;29;20032;-93
2024/03/20 04:36:33;;;;;;;8.60;4.97;;;;;;;2.23;63.95;99744.34;4878894;29;20059;-92
2024/03/20 04:39:00;;;;;;;7.88;4.50;;;;;;;2.37;63.24;99763.75;4872031;29;20028;-93
2024/03/20 04:41:25;;;;;;;7.97;4.78;;;;;;;2.45;63.41;99768.03;4889243;29;20036;-93
2024/03/20 04:43:54;;;;;;;8.45;4.97;;;;;;;2.37;62.64;99756.59;4889178;29;20522;-94
2024/03/20 04:46:19;;;;;;;8.55;5.15;;;;;;;2.41;63.81;99757.03;4899931;29;20032;-93
2024/03/20 04:48:45;;;;;;;7.93;5.13;;;;;;;2.40;63.37;99766.00;4901865;29;20031;-93
2024/03/20 04:51:11;;;;;;;8.55;5.40;;;;;;;2.39;63.14;99761.72;4905617;29;20025;-92
2024/03/20 04:53:37;;;;;;;10.27;5.10;;;;;;;2.34;65.13;99754.34;4884054;29;20036;-93
2024/03/20 04:56:05;;;;;;;11.20;8.68;;;;;;;2.48;65.14;99791.56;4869521;29;20112;-92
2024/03/20 04:58:30;;;;;;;9.82;6.22;;;;;;;2.50;65.00;99779.69;4884087;29;20043;-91
2024/03/20 05:00:56;;;;;;;13.65;5.30;;;;;;;2.45;64.86;99790.13;4897571;29;20028;-92
2024/03/20 05:03:21;;;;;;;9.73;5.20;;;;;;;2.26;64.06;99770.50;4890606;29;20051;-91
2024/03/20 05:05:47;;;;;;;15.57;6.15;;;;;;;2.52;64.54;99795.44;4924956;29;20027;-91
2024/03/20 05:08:12;;;;;;;11.38;6.65;;;;;;;2.45;63.91;99779.50;4902241;29;20063;-93
2024/03/20 05:10:38;;;;;;;9.95;6.10;;;;;;;2.50;64.99;99797.50;4873831;29;20104;-91
2024/03/20 05:13:04;;;;;;;10.15;6.07;;;;;;;2.55;64.13;99795.84;4896386;29;20031;-90
2024/03/20 05:15:32;;;;;;;12.32;6.13;;;;;;;2.65;63.48;99784.78;4878172;29;20032;-92
2024/03/20 05:17:58;;;;;;;8.70;5.90;;;;;;;2.87;62.89;99793.34;4889053;29;20083;-91
2024/03/20 05:20:23;;;;;;;14.77;6.35;;;;;;;2.85;62.24;99781.31;4879787;29;20052;-91
2024/03/20 05:22:49;;;;;;;10.25;6.00;;;;;;;2.89;60.38;99785.19;4863491;29;20035;-91
2024/03/20 05:25:14;;;;;;;18.08;7.15;;;;;;;3.12;60.51;99804.13;4859198;29;20483;-93
2024/03/20 05:27:40;;;;;;;12.23;7.05;;;;;;;3.19;60.13;99798.78;4853924;29;20511;-90
2024/03/20 05:30:06;;;;;;;14.35;7.55;;;;;;;3.18;60.04;99786.53;4874896;29;20071;-91
2024/03/20 05:32:32;;;;;;;19.77;7.70;;;;;;;3.13;61.91;99791.66;4872140;29;20036;-92
2024/03/20 05:34:58;;;;;;;11.07;6.30;;;;;;;3.23;61.57;99787.50;4871434;29;20479;-91
2024/03/20 05:37:24;;;;;;;19.92;6.88;;;;;;;3.36;61.17;99785.84;4885601;29;20073;-92
2024/03/20 05:39:49;;;;;;;23.48;17.50;;;;;;;3.44;61.01;99797.09;4855089;29;20099;-93
2024/03/20 05:42:15;;;;;;;10.20;6.32;;;;;;;3.72;59.82;99800.44;4856006;29;20032;-94
2024/03/20 05:44:41;;;;;;;28.63;6.53;;;;;;;3.63;59.47;99810.50;4884996;29;20024;-93
2024/03/20 05:47:07;;;;;;;12.68;6.22;;;;;;;3.76;59.12;99807.78;4906128;29;20035;-93
2024/03/20 05:49:32;;;;;;;16.38;6.53;;;;;;;3.76;59.06;99799.78;4861024;29;20028;-96
2024/03/20 05:51:58;;;;;;;11.18;5.78;;;;;;;3.92;59.12;99819.78;4871211;29;20055;-91
2024/03/20 05:54:24;;;;;;;11.68;5.95;;;;;;;4.13;57.73;99831.13;4894413;29;20028;-92
2024/03/20 05:56:49;;;;;;;14.98;8.60;;;;;;;4.12;56.96;99789.53;4878797;29;20036;-94
2024/03/20 05:59:15;;;;;;;16.88;6.45;;;;;;;4.15;57.04;99805.06;4875938;29;20032;-93
2024/03/20 06:01:41;;;;;;;29.85;6.88;;;;;;;4.22;56.23;99804.00;4879314;29;20055;-94
2024/03/20 06:04:09;;;;;;;11.75;5.63;;;;;;;4.53;54.98;99807.66;4895162;29;20103;-94
2024/03/20 06:06:35;;;;;;;8.00;4.45;;;;;;;4.58;52.48;99799.00;4876593;29;20024;-93
2024/03/20 06:09:00;;;;;;;8.35;3.53;;;;;;;4.88;50.58;99812.50;4878562;29;20047;-92
2024/03/20 06:11:29;;;;;;;7.15;3.90;;;;;;;5.15;50.19;99834.38;4879228;29;20016;-95
2024/03/20 06:14:51;;;;;;;;;;;;;;;;;;;;;
2024/03/20 06:17:18;;;;;;;6.60;3.53;;;;;;;5.42;49.05;99831.44;4917139;29;20135;-91
2024/03/20 06:22:41;;;;;;;13.48;4.47;;;;;;;5.73;48.47;99838.44;4802321;29;20043;-92
2024/03/20 06:25:07;;;;;;;13.95;5.88;;;;;;;5.84;48.60;99832.34;4824390;29;20124;-93
2024/03/20 06:27:34;;;;;;;7.57;4.30;;;;;;;5.82;47.40;99815.72;4855700;29;20172;-91
2024/03/20 06:30:04;;;;;;;6.25;3.30;;;;;;;6.06;46.90;99830.03;4855585;29;20025;-93
2024/03/20 06:32:32;;;;;;;6.68;3.45;;;;;;;6.05;47.55;99816.88;4856809;29;20084;-94
2024/03/20 06:34:58;;;;;;;7.78;4.55;;;;;;;6.36;47.23;99833.69;4856464;29;20025;-92
2024/03/20 06:37:23;;;;;;;14.65;7.28;;;;;;;6.29;47.23;99817.75;4885794;29;20072;-93
2024/03/20 06:40:10;;;;;;;8.80;4.68;;;;;;;6.66;47.06;99847.84;4851577;29;20533;-92
2024/03/20 06:42:45;;;;;;;7.78;4.93;;;;;;;6.71;47.19;99831.09;4865650;29;20088;-94
2024/03/20 06:45:11;;;;;;;8.85;4.43;;;;;;;6.83;46.49;99831.09;4868103;29;20040;-95
2024/03/20 06:51:49;;;;;;;5.93;4.00;;;;;;;7.26;45.91;99852.16;4889466;29;20111;-95
2024/03/20 06:54:20;;;;;;;10.93;4.47;;;;;;;7.26;46.77;99859.34;4926315;29;20031;-94
2024/03/20 06:57:04;;;;;;;10.63;4.25;;;;;;;7.22;45.05;99851.00;4897067;29;20043;-96
2024/03/20 06:59:41;;;;;;;7.55;4.07;;;;;;;7.40;45.14;99851.88;4898389;29;20035;-94
2024/03/20 07:02:23;;;;;;;7.28;4.10;;;;;;;7.34;44.46;99831.41;4899735;29;20064;-93
2024/03/20 07:04:51;;;;;;;;;;;;;;;7.53;44.96;99854.28;4910065;29;20044;-95
2024/03/20 07:07:48;;;;;;;6.75;4.20;;;;;;;7.36;44.70;99831.97;4908381;29;19974;-94
2024/03/20 07:10:25;;;;;;;5.55;4.05;;;;;;;7.58;44.44;99838.34;4894289;29;20043;-95
2024/03/20 07:13:29;;;;;;;5.30;3.75;;;;;;;7.66;43.74;99848.69;4910124;29;20035;-94
2024/03/20 07:16:06;;;;;;;7.95;4.00;;;;;;;7.71;44.29;99831.09;4918031;29;20047;-96
2024/03/20 07:18:39;;;;;;;33.05;21.10;;;;;;;7.90;43.54;99846.72;4929114;29;20063;-93
2024/03/20 07:21:25;;;;;;;;;;;;;;;;;;;;;
2024/03/20 07:24:23;;;;;;;5.70;3.92;;;;;;;8.16;42.89;99855.25;4919463;29;20071;-95
2024/03/20 07:26:58;;;;;;;28.88;5.05;;;;;;;8.13;42.46;99844.19;4911447;29;20035;-94
2024/03/20 07:29:27;;;;;;;6.32;3.95;;;;;;;8.06;43.74;99849.72;4935260;29;20024;-94
2024/03/20 07:32:13;;;;;;;;;;;;;;;;;;;;;
2024/03/20 07:34:48;;;;;;;6.78;4.00;;;;;;;8.26;42.81;99843.91;4875818;29;20131;-95
2024/03/20 07:41:35;;;;;;;7.25;4.15;;;;;;;8.35;42.66;99865.78;4840091;29;20068;-95
2024/03/20 07:44:36;;;;;;;6.43;4.53;;;;;;;8.36;42.66;99849.44;4860696;29;20397;-95
2024/03/20 07:51:10;;;;;;;6.80;3.78;;;;;;;8.62;42.25;99856.09;4792722;30;20040;-94
2024/03/20 07:56:52;;;;;;;6.35;3.85;;;;;;;8.70;41.14;99836.09;4776716;30;20043;-91
2024/03/20 07:59:18;;;;;;;6.10;3.83;;;;;;;8.66;41.62;99835.75;4791495;30;20035;-94
2024/03/20 08:01:46;;;;;;;11.57;6.65;;;;;;;8.68;42.35;99816.72;4854851;29;20104;-92
2024/03/20 08:04:38;;;;;;;6.10;3.85;;;;;;;8.97;41.96;99848.84;4841951;29;20065;-92
2024/03/20 08:07:13;;;;;;;;;;;;;;;9.00;41.30;99859.09;4859445;29;20041;-93
2024/03/20 08:10:30;;;;;;;6.88;3.42;;;;;;;8.75;40.45;99819.22;4856729;29;19928;-94
2024/03/20 08:13:44;;;;;;;7.97;5.03;;;;;;;9.12;40.02;99859.78;4873934;29;20108;-94
2024/03/20 08:16:13;;;;;;;8.05;4.55;;;;;;;8.98;40.41;99837.84;4866728;29;20801;-94
2024/03/20 08:19:13;;;;;;;6.32;4.00;;;;;;;8.96;40.33;99809.59;4871618;29;20025;-94
2024/03/20 08:21:38;;;;;;;7.65;4.28;;;;;;;9.30;40.51;99864.09;4868160;29;20138;-92
2024/03/20 08:24:24;;;;;;;6.15;3.95;;;;;;;9.22;40.45;99830.38;4853530;29;20116;-92
2024/03/20 08:26:55;;;;;;;7.50;4.43;;;;;;;9.43;40.34;99831.47;4878894;29;20120;-93
2024/03/20 08:29:27;;;;;;;14.68;4.28;;;;;;;9.67;39.25;99858.09;4848613;29;20033;-92
2024/03/20 08:31:53;;;;;;;6.03;4.32;;;;;;;9.58;39.60;99854.22;4844840;29;20051;-90
2024/03/20 08:34:22;;;;;;;6.13;3.95;;;;;;;9.33;39.61;99825.16;4848534;29;20068;-90
2024/03/20 08:36:50;;;;;;;7.85;4.47;;;;;;;9.51;39.31;99822.97;4840706;29;20125;-91
2024/03/20 08:39:41;;;;;;;7.60;4.30;;;;;;;9.52;39.66;99818.41;4875512;29;20051;-91
2024/03/20 08:42:17;;;;;;;7.25;4.18;;;;;;;9.76;39.68;99826.22;4831766;29;20612;-95
2024/03/20 08:44:51;;;;;;;8.48;5.60;;;;;;;9.94;40.33;99825.06;4835806;29;20037;-93
2024/03/20 08:47:43;;;;;;;;;;;;;;;;;;;;;
2024/03/20 08:50:31;;;;;;;6.63;4.47;;;;;;;10.09;38.38;99836.00;4863153;29;20108;-92
2024/03/20 08:53:27;;;;;;;7.10;4.43;;;;;;;9.91;37.14;99818.31;4842456;29;20033;-94
2024/03/20 08:59:19;;;;;;;8.20;4.40;;;;;;;9.86;37.30;99816.38;4894232;29;20047;-91
2024/03/20 09:06:04;;;;;;;7.93;5.10;;;;;;;9.79;37.23;99807.69;4885855;29;20040;-95
2024/03/20 09:08:51;;;;;;;;;;;;;;;;;;;;;
2024/03/20 09:11:18;;;;;;;5.25;3.88;;;;;;;10.03;37.38;99810.91;4892235;29;19982;-93
2024/03/20 09:34:04;;;;;;;;;;;;;;;;;;;;;
2024/03/20 09:36:30;;;;;;;9.90;4.35;;;;;;;10.03;36.36;99823.56;4873444;29;20192;-93
2024/03/20 09:46:45;;;;;;;;;;;;;;;;;;;;;
2024/03/20 09:49:11;;;;;;;6.05;3.80;;;;;;;10.52;35.78;99807.31;5198852;23;20147;-93
2024/03/20 09:51:37;;;;;;;11.27;4.30;;;;;;;10.40;36.63;99817.47;4915801;29;20064;-92
2024/03/20 09:54:02;;;;;;;9.10;4.57;;;;;;;10.54;36.23;99823.22;4876098;29;20123;-94
2024/03/20 09:56:31;;;;;;;6.00;3.90;;;;;;;10.43;35.60;99814.25;4865289;29;20040;-93
2024/03/20 09:59:01;;;;;;;5.90;3.40;;;;;;;10.42;35.52;99818.03;4857060;29;20048;-93
2024/03/20 10:01:39;;;;;;;;;;;;;;;;;;;;;
2024/03/20 10:12:08;;;;;;;8.57;4.80;;;;;;;10.82;35.42;99822.91;4869028;29;20038;-91
2024/03/20 10:14:34;;;;;;;5.75;3.58;;;;;;;10.68;35.31;99811.75;4817555;29;20533;-92
2024/03/20 10:17:17;;;;;;;5.97;3.70;;;;;;;10.71;35.05;99818.53;4800756;29;20083;-92
2024/03/20 10:19:43;;;;;;;6.22;3.83;;;;;;;10.69;35.24;99817.97;4875848;29;20013;-92
2024/03/20 10:25:25;;;;;;;6.90;4.10;;;;;;;10.55;36.23;99808.72;4888580;29;20065;-93
2024/03/20 10:27:53;;;;;;;6.60;3.85;;;;;;;10.45;36.11;99801.34;4870570;29;20041;-94
2024/03/20 10:30:21;;;;;;;5.32;3.47;;;;;;;10.58;35.35;99808.19;4871422;29;20504;-94
2024/03/20 10:33:19;;;;;;;6.35;3.90;;;;;;;10.67;34.49;99801.25;4868001;29;20033;-94
2024/03/20 10:36:36;;;;;;;7.65;4.55;;;;;;;10.85;34.32;99794.63;4854059;29;20041;-95
2024/03/20 10:39:05;;;;;;;5.88;3.78;;;;;;;10.99;34.63;99830.03;4864514;29;20065;-95
2024/03/20 10:41:39;;;;;;;6.15;4.00;;;;;;;10.81;34.25;99813.22;4856279;29;20029;-96
2024/03/20 10:44:32;;;;;;;6.82;4.10;;;;;;;10.68;35.12;99792.09;4859011;29;20033;-96
2024/03/20 10:46:58;;;;;;;5.93;4.13;;;;;;;10.79;36.08;99801.06;4878209;29;20185;-91
2024/03/20 10:49:24;;;;;;;5.80;3.17;;;;;;;10.99;35.73;99795.78;4853568;29;20049;-93
2024/03/20 10:52:32;;;;;;;5.53;3.85;;;;;;;11.39;34.85;99812.44;4855398;29;20039;-93
2024/03/20 10:55:03;;;;;;;6.00;3.28;;;;;;;11.21;35.60;99795.66;4855417;29;20025;-95
2024/03/20 10:57:33;;;;;;;7.07;4.10;;;;;;;11.10;35.93;99778.63;4843194;29;20412;-94
2024/03/20 11:00:00;;;;;;;6.60;4.00;;;;;;;11.23;35.25;99798.09;4842138;29;20049;-94
2024/03/20 11:02:45;;;;;;;;;;;;;;;;;;;;;
2024/03/20 11:05:39;;;;;;;5.97;4.07;;;;;;;11.28;35.80;99808.88;4858373;29;20100;-95
2024/03/20 11:08:11;;;;;;;6.47;4.28;;;;;;;11.09;36.14;99776.19;4856575;29;20040;-92
2024/03/20 11:10:40;;;;;;;6.20;3.95;;;;;;;11.35;35.71;99811.34;4839401;29;20210;-94
2024/03/20 11:13:05;;;;;;;7.07;4.10;;;;;;;11.23;34.77;99796.19;4854793;29;20037;-95
2024/03/20 11:22:39;;;;;;;8.98;4.32;;;;;;;11.14;35.29;99776.19;4836733;29;20077;-95
2024/03/20 11:25:30;;;;;;;6.38;4.13;;;;;;;11.33;34.47;99760.41;4879749;29;20131;-95
2024/03/20 11:28:09;;;;;;;7.88;4.30;;;;;;;11.45;34.57;99773.63;4841278;29;20507;-94
2024/03/20 11:30:40;;;;;;;6.47;4.20;;;;;;;11.19;34.70;99751.97;4885169;29;20472;-91
2024/03/20 11:53:16;;;;;;;5.55;3.85;;;;;;;12.13;32.72;99760.88;5497320;23;20061;-94
2024/03/20 11:56:13;;;;;;;6.00;4.03;;;;;;;12.00;33.05;99744.41;4855939;29;20045;-95
2024/03/20 11:58:54;;;;;;;6.40;4.30;;;;;;;12.01;32.56;99760.31;4858136;29;20492;-95
2024/03/20 12:01:34;;;;;;;10.90;4.90;;;;;;;12.02;32.59;99782.72;4841015;29;20034;-96
2024/03/20 12:04:28;;;;;;;5.80;3.47;;;;;;;11.79;32.36;99752.44;4823953;29;20108;-94
2024/03/20 12:06:52;;;;;;;;;;;;;;;12.19;32.03;99763.59;4840877;29;20029;-91
2024/03/20 12:09:32;;;;;;;6.07;3.70;;;;;;;12.25;32.37;99759.81;4834827;29;19912;-93
2024/03/20 12:12:29;;;;;;;6.30;3.72;;;;;;;12.09;32.28;99751.69;4853442;29;20044;-94
2024/03/20 12:15:01;;;;;;;7.13;4.13;;;;;;;12.01;32.19;99768.41;4854174;29;20124;-94
2024/03/20 12:17:29;;;;;;;6.32;3.80;;;;;;;11.89;32.63;99752.50;4840095;29;20052;-92
2024/03/20 12:20:05;;;;;;;7.53;3.80;;;;;;;11.88;32.85;99760.81;4854710;29;20036;-92
2024/03/20 12:23:16;;;;;;;;;;;;;;;;;;;;;
2024/03/20 12:26:06;;;;;;;5.65;3.78;;;;;;;11.88;32.33;99756.25;4847174;29;20428;-94
2024/03/20 12:28:37;;;;;;;12.13;8.63;;;;;;;11.93;32.64;99766.22;4824683;29;20074;-93
2024/03/20 12:31:19;;;;;;;;;;;;;;;;;;;;;
2024/03/20 12:34:04;;;;;;;;;;;;;;;;;;;;;
2024/03/20 12:36:32;;;;;;;6.20;4.20;;;;;;;12.01;32.92;99765.72;4838541;29;20124;-93
2024/03/20 12:38:59;;;;;;;6.68;3.75;;;;;;;12.10;32.07;99742.53;4835153;29;20044;-95
2024/03/20 12:41:34;;;;;;;6.82;4.03;;;;;;;12.16;32.40;99762.25;4832031;29;20038;-94
2024/03/20 12:44:29;;;;;;;4.60;3.38;;;;;;;12.38;32.07;99772.75;4832141;29;20029;-94
2024/03/20 12:46:59;;;;;;;7.45;3.83;;;;;;;12.32;32.58;99747.63;4834655;29;20041;-93
2024/03/20 12:49:30;;;;;;;9.88;3.88;;;;;;;12.39;32.01;99765.44;4849302;29;20508;-94
2024/03/20 12:52:19;;;;;;;5.85;3.60;;;;;;;12.18;31.30;99751.16;4820398;29;20116;-92
2024/03/20 12:55:08;;;;;;;6.28;3.65;;;;;;;12.51;30.88;99757.88;4852407;29;20045;-92
2024/03/20 12:58:11;;;;;;;5.82;3.47;;;;;;;12.67;31.35;99764.09;4871297;29;20029;-93
2024/03/20 13:01:10;;;;;;;6.38;3.50;;;;;;;12.45;30.90;99765.22;4869441;29;20468;-93
2024/03/20 13:03:46;;;;;;;3.83;2.70;;;;;;;12.29;30.76;99748.19;4867932;29;20052;-93
2024/03/20 13:09:16;;;;;;;4.65;3.15;;;;;;;12.27;30.87;99753.03;4855649;29;20076;-92
2024/03/20 13:11:44;;;;;;;3.90;3.03;;;;;;;12.30;31.11;99768.69;4873958;29;20118;-89
2024/03/20 13:14:10;;;;;;;6.43;3.15;;;;;;;12.27;31.07;99753.03;4854614;29;20029;-90
2024/03/20 13:16:36;;;;;;;7.15;4.05;;;;;;;12.32;31.02;99744.94;4864015;29;20037;-91
2024/03/20 13:19:17;;;;;;;9.50;4.15;;;;;;;12.38;31.35;99747.66;4820538;29;20033;-94
2024/03/20 13:21:49;;;;;;;10.93;6.40;;;;;;;12.44;31.39;99765.47;4849883;29;20041;-91
2024/03/20 13:24:24;;;;;;;7.28;3.70;;;;;;;12.25;31.48;99754.41;4862938;29;20049;-91
2024/03/20 13:26:53;;;;;;;4.80;3.30;;;;;;;12.28;31.89;99745.75;4844307;29;20045;-90
2024/03/20 13:29:25;;;;;;;4.63;3.13;;;;;;;12.49;31.45;99741.13;4846688;29;20037;-92
2024/03/20 13:31:57;;;;;;;4.68;3.17;;;;;;;12.35;30.48;99740.91;4848973;29;20041;-91
2024/03/20 13:34:30;;;;;;;6.10;3.25;;;;;;;12.25;30.86;99736.31;4846225;29;20037;-94
2024/03/20 13:36:59;;;;;;;6.15;3.60;;;;;;;12.13;31.20;99739.25;4835561;29;20045;-96
2024/03/20 13:39:37;;;;;;;5.85;3.30;;;;;;;12.24;31.92;99758.16;4835258;29;20091;-95
2024/03/20 13:42:08;;;;;;;6.40;3.50;;;;;;;12.18;32.10;99730.38;4836615;29;20634;-92
2024/03/20 13:44:39;;;;;;;4.93;3.20;;;;;;;12.11;32.15;99732.53;4863785;29;20034;-93
2024/03/20 13:47:05;;;;;;;5.20;3.30;;;;;;;12.18;31.41;99745.75;4848695;29;20120;-91
2024/03/20 13:49:38;;;;;;;5.05;3.45;;;;;;;11.98;31.96;99752.75;4836918;29;20029;-96